Airfield :
LOGIN :

Register | Disclaimer

   EN    FR    IT 

 










Legend :    VFR   Marginal VFR   IFR   Intensive IFR   Very Intensive IFR
Visi :
Ceiling :
>= 8 km
>= 3000ft
5 to 8 km
1000 to 3000 ft
1500m to 5 km
500 to 1000 ft
800 to 1500m
200 to 500 ft
< 800m
< 200 ft
Symbols :   Thunderstorms  Fog  Heavy snow  Heavy precipitations  Wind > 20 kt
SIGMETs :     Misc.  Thunderstorms  Icing  Turbulence  Mountain Waves  Volcanic Ashes







- Airport Elevation : 25 ft
- IATA code : QCY


EGXC - RAF Coningsby

CURRENT METAR :
  • 181550Z 23009KT 9999 FEW022 SCT060 BKN130 09/06 Q1011 BLU NOSIG

EXPIRED METARs :
  • 181450Z 23018KT 8000 -SHRA FEW020 SCT040 BKN120 08/06 Q1010 BLU NOSIG
  • 181437Z 23014KT 7000 SHRA BKN022 BKN120 10/06 Q1010 WHT BECMG 9999 NSW SCT030 BLU
  • 181350Z 22016KT 9999 FEW032 BKN120 BKN220 11/06 Q1010 BLU NOSIG

TAF TAF EGXC
Valid from the 18 at 15:00 until the 19 at 09:00 UTC


181322Z 1815/1909 21013KT 9999 SCT030
PROB40
TEMPO 1815/1817 22015G25KT 7000 SHRA SCT022
No reported NOTAMs for that airfield.



MET'MAP, your aeronautical weather chart ! - Copyright ORBIFLY December 2007 - Disclaimer

ORBIFLY MET'MAP TEAM :

Programming & Development : Alexandra Zaïnal
Concept & Development : Baudouin d'Aumeries
Co-Development & Prog : Marc-Olivier Méhu
Technical & hardware support : Manuel Goepfert

Contact : metmap@orbifly.com




SOURCES & CREDITS :

   NOAA